Time;durP1;ratioP1;P1;durP2;ratioP2;P2;SDS_P1;SDS_P2;PMS_P1;PMS_P2;Temp;Humidity;BMP_temperature;BMP_pressure;BME280_temperature;BME280_humidity;BME280_pressure;Samples;Min_cycle;Max_cycle;Signal;HPM_P1;HPM_P2
2021/04/16 00:00:13;;;;;;;;;;;;;;;-2.47;100.00;96382.69;1029900;28;19910;-67
2021/04/16 00:00:45;;;;;;;;;;;;;;;-2.46;100.00;96384.28;1026830;28;19913;-66
2021/04/16 00:01:16;;;;;;;;;;;;;;;-2.42;100.00;96387.34;1023905;29;19914;-68
2021/04/16 00:01:46;;;;;;;;;;;;;;;-2.43;100.00;96390.88;1018680;29;19903;-68
2021/04/16 00:02:16;;;;;;;;;;;;;;;-2.43;100.00;96385.75;1017917;28;20407;-70
2021/04/16 00:02:46;;;;;;;;;;;;;;;-2.45;100.00;96385.91;1029816;28;19918;-67
2021/04/16 00:03:17;;;;;;;;;;;;;;;-2.47;100.00;96389.63;1024109;28;19977;-67
2021/04/16 00:03:47;;;;;;;;;;;;;;;-2.48;100.00;96388.00;1026536;28;20040;-68
2021/04/16 00:04:18;;;;;;;;;;;;;;;-2.50;100.00;96385.59;1021221;29;20620;-69
2021/04/16 00:04:48;;;;;;;;;;;;;;;-2.51;100.00;96385.78;1019369;28;19910;-68
2021/04/16 00:05:18;;;;;;;;;;;;;;;-2.54;100.00;96384.31;1027651;28;20001;-69
2021/04/16 00:05:49;;;;;;;;;;;;;;;-2.54;100.00;96383.53;1019551;29;19907;-66
2021/04/16 00:06:19;;;;;;;;;;;;;;;-2.55;100.00;96379.34;1020266;28;20268;-67
2021/04/16 00:06:49;;;;;;;;;;;;;;;-2.54;100.00;96386.09;1023040;29;20463;-66
2021/04/16 00:07:20;;;;;;;;;;;;;;;-2.54;100.00;96378.41;1019282;29;20631;-70
2021/04/16 00:07:50;;;;;;;;;;;;;;;-2.53;100.00;96374.84;1026806;28;19947;-66
2021/04/16 00:08:21;;;;;;;;;;;;;;;-2.57;100.00;96382.09;1025118;28;19914;-68
2021/04/16 00:08:52;;;;;;;;;;;;;;;-2.58;100.00;96377.09;1031229;28;19913;-69
2021/04/16 00:09:23;;;;;;;;;;;;;;;-2.57;100.00;96373.59;1031397;28;19913;-68
2021/04/16 00:09:53;;;;;;;;;;;;;;;-2.59;100.00;96376.31;1023670;28;20446;-69
2021/04/16 00:10:29;;;;;;;;;;;;;;;-2.61;100.00;96378.25;1017184;29;19925;-67
2021/04/16 00:11:19;;;;;;;;;;;;;;;-2.62;100.00;96377.44;1023260;28;19913;-68
2021/04/16 00:11:50;;;;;;;;;;;;;;;-2.62;100.00;96374.88;1022358;29;19911;-69
2021/04/16 00:12:20;;;;;;;;;;;;;;;-2.65;100.00;96380.34;1024507;28;19953;-69
2021/04/16 00:12:50;;;;;;;;;;;;;;;-2.63;100.00;96380.16;1028905;28;19909;-69
2021/04/16 00:13:21;;;;;;;;;;;;;;;-2.65;100.00;96376.94;1028645;28;19940;-69
2021/04/16 00:13:51;;;;;;;;;;;;;;;-2.64;100.00;96376.00;1027518;28;19997;-67
2021/04/16 00:14:22;;;;;;;;;;;;;;;-2.67;100.00;96379.69;1025648;28;20378;-66
2021/04/16 00:14:52;;;;;;;;;;;;;;;-2.67;100.00;96374.56;1020929;29;19980;-69
2021/04/16 00:15:23;;;;;;;;;;;;;;;-2.67;100.00;96378.91;1015600;29;19910;-69
2021/04/16 00:15:53;;;;;;;;;;;;;;;-2.71;100.00;96373.28;1023553;29;19906;-69
2021/04/16 00:16:25;;;;;;;;;;;;;;;-2.70;100.00;96374.09;1021464;28;19911;-68
2021/04/16 00:16:55;;;;;;;;;;;;;;;-2.72;100.00;96371.66;1026020;28;19906;-66
2021/04/16 00:17:25;;;;;;;;;;;;;;;-2.71;100.00;96368.16;1030692;28;20318;-68
2021/04/16 00:17:55;;;;;;;;;;;;;;;-2.72;100.00;96374.22;1031379;28;20057;-70
2021/04/16 00:18:27;;;;;;;;;;;;;;;-2.68;100.00;96372.16;1021475;29;20135;-67
2021/04/16 00:18:57;;;;;;;;;;;;;;;-2.70;100.00;96374.88;1022334;28;19902;-67
2021/04/16 00:19:27;;;;;;;;;;;;;;;-2.71;100.00;96373.28;1027028;28;19910;-69
2021/04/16 00:19:58;;;;;;;;;;;;;;;-2.73;100.00;96375.22;1019507;29;19907;-69
2021/04/16 00:20:28;;;;;;;;;;;;;;;-2.76;100.00;96365.25;1017632;29;19919;-68
2021/04/16 00:20:58;;;;;;;;;;;;;;;-2.75;100.00;96372.03;1022549;29;19942;-69
2021/04/16 00:21:29;;;;;;;;;;;;;;;-2.72;100.00;96376.00;1029930;28;19905;-68
2021/04/16 00:21:59;;;;;;;;;;;;;;;-2.75;100.00;96369.44;1023910;28;20045;-69
2021/04/16 00:22:29;;;;;;;;;;;;;;;-2.95;100.00;96340.75;1026017;28;19910;-67
2021/04/16 00:23:00;;;;;;;;;;;;;;;-2.71;100.00;96377.63;1025888;28;20001;-68
2021/04/16 00:23:30;;;;;;;;;;;;;;;-2.69;100.00;96373.13;1031189;28;19944;-68
2021/04/16 00:24:00;;;;;;;;;;;;;;;-2.72;100.00;96371.66;1023479;29;19956;-68
2021/04/16 00:24:31;;;;;;;;;;;;;;;-2.75;100.00;96369.44;1022644;29;19910;-67
2021/04/16 00:25:02;;;;;;;;;;;;;;;-2.76;100.00;96374.72;1021850;29;19913;-69
2021/04/16 00:25:32;;;;;;;;;;;;;;;-2.80;100.00;96368.31;1027621;28;20684;-68
2021/04/16 00:26:02;;;;;;;;;;;;;;;-2.78;100.00;96374.91;1029030;28;19937;-69
2021/04/16 00:26:33;;;;;;;;;;;;;;;-2.80;100.00;96378.59;1030112;28;19985;-69
2021/04/16 00:27:03;;;;;;;;;;;;;;;-2.79;100.00;96373.28;1028982;28;20215;-69
2021/04/16 00:27:33;;;;;;;;;;;;;;;-2.83;100.00;96374.59;1030557;28;19920;-68
2021/04/16 00:28:04;;;;;;;;;;;;;;;-2.78;100.00;96376.66;1031635;28;19916;-68
2021/04/16 00:28:34;;;;;;;;;;;;;;;-2.79;100.00;96377.63;1034997;28;19948;-68
2021/04/16 00:29:04;;;;;;;;;;;;;;;-2.81;100.00;96371.88;1033759;28;19910;-68
2021/04/16 00:29:35;;;;;;;;;;;;;;;-2.80;100.00;96369.13;1031061;28;20375;-68
2021/04/16 00:30:05;;;;;;;;;;;;;;;-2.82;100.00;96371.03;1031624;28;19910;-68
2021/04/16 00:30:37;;;;;;;;;;;;;;;-2.83;100.00;96369.44;1030533;28;19934;-69
2021/04/16 00:31:17;;;;;;;;;;;;;;;-2.80;100.00;96368.31;1027416;28;20493;-70
2021/04/16 00:31:51;;;;;;;;;;;;;;;-2.82;100.00;96365.09;1024620;28;19930;-69
2021/04/16 00:32:21;;;;;;;;;;;;;;;-2.81;100.00;96367.53;1023129;28;20053;-68
2021/04/16 00:32:51;;;;;;;;;;;;;;;-2.82;100.00;96370.25;1021611;28;19947;-68
2021/04/16 00:33:22;;;;;;;;;;;;;;;-2.81;100.00;96372.66;1027033;28;20038;-70
2021/04/16 00:33:52;;;;;;;;;;;;;;;-2.82;100.00;96371.03;1032339;28;19916;-68
2021/04/16 00:34:23;;;;;;;;;;;;;;;-2.77;100.00;96373.13;1036272;28;20069;-69
2021/04/16 00:34:53;;;;;;;;;;;;;;;-2.83;100.00;96369.44;1021903;28;20394;-69
2021/04/16 00:35:24;;;;;;;;;;;;;;;-2.87;100.00;96366.41;1022465;29;20318;-69
2021/04/16 00:35:54;;;;;;;;;;;;;;;-2.89;100.00;96370.09;1023412;28;19906;-68
2021/04/16 00:36:24;;;;;;;;;;;;;;;-2.92;100.00;96365.28;1023734;28;19954;-68
2021/04/16 00:36:55;;;;;;;;;;;;;;;-2.93;100.00;96363.69;1025548;28;20000;-68
2021/04/16 00:37:25;;;;;;;;;;;;;;;-2.96;100.00;96364.00;1029237;28;19921;-66
2021/04/16 00:37:55;;;;;;;;;;;;;;;-2.99;100.00;96365.13;1031176;28;19905;-69
2021/04/16 00:38:26;;;;;;;;;;;;;;;-2.95;100.00;96365.59;1034463;28;19906;-69
2021/04/16 00:38:56;;;;;;;;;;;;;;;-3.14;100.00;96325.69;1037678;28;19913;-67
2021/04/16 00:39:26;;;;;;;;;;;;;;;-2.92;100.00;96365.28;1038070;28;19909;-69
2021/04/16 00:39:56;;;;;;;;;;;;;;;-2.94;100.00;96362.09;1035222;28;19936;-70
2021/04/16 00:40:28;;;;;;;;;;;;;;;-2.95;100.00;96360.47;1027615;28;19911;-69
2021/04/16 00:40:59;;;;;;;;;;;;;;;-2.97;100.00;96362.41;1021388;29;20360;-66
2021/04/16 00:41:29;;;;;;;;;;;;;;;-2.99;100.00;96365.13;1018821;29;19934;-68
2021/04/16 00:42:00;;;;;;;;;;;;;;;-3.00;100.00;96365.31;1023228;28;19917;-68
2021/04/16 00:42:30;;;;;;;;;;;;;;;-3.03;100.00;96361.28;1023699;28;19911;-68
2021/04/16 00:43:00;;;;;;;;;;;;;;;-2.99;100.00;96361.75;1025538;28;19918;-69
2021/04/16 00:43:31;;;;;;;;;;;;;;;-2.96;100.00;96361.44;1029955;28;19946;-68
2021/04/16 00:44:02;;;;;;;;;;;;;;;-2.96;100.00;96358.88;1027407;28;19914;-69
2021/04/16 00:44:32;;;;;;;;;;;;;;;-2.99;100.00;96364.34;1026173;28;19910;-68
2021/04/16 00:45:03;;;;;;;;;;;;;;;-2.95;100.00;96360.47;1022070;29;19952;-67
2021/04/16 00:45:34;;;;;;;;;;;;;;;-2.99;100.00;96359.19;1018202;29;19914;-68
2021/04/16 00:46:08;;;;;;;;;;;;;;;-3.04;100.00;96358.91;1015299;29;20014;-69
2021/04/16 00:46:47;;;;;;;;;;;;;;;-3.05;100.00;96363.22;1024507;28;20399;-68
2021/04/16 00:47:17;;;;;;;;;;;;;;;-3.00;100.00;96362.75;1019151;29;20424;-68
2021/04/16 00:47:48;;;;;;;;;;;;;;;-3.05;100.00;96357.28;1025664;28;19921;-69
2021/04/16 00:48:21;;;;;;;;;;;;;;;-2.97;100.00;96358.06;1026446;28;19910;-69
2021/04/16 00:48:52;;;;;;;;;;;;;;;-3.01;100.00;96358.56;1027781;28;19905;-68
2021/04/16 00:49:24;;;;;;;;;;;;;;;-3.03;100.00;96358.72;1026032;28;20384;-68
2021/04/16 00:49:56;;;;;;;;;;;;;;;-3.02;100.00;96359.53;1022863;28;20005;-68
2021/04/16 00:50:38;;;;;;;;;;;;;;;-3.04;100.00;96358.91;1018216;29;19997;-69
2021/04/16 00:51:12;;;;;;;;;;;;;;;-3.06;100.00;96364.19;1022995;29;20368;-68
2021/04/16 00:51:43;;;;;;;;;;;;;;;-3.13;100.00;96356.31;1025429;28;19906;-68
2021/04/16 00:52:16;;;;;;;;;;;;;;;-3.12;100.00;96354.56;1025631;28;20009;-68
2021/04/16 00:52:46;;;;;;;;;;;;;;;-3.13;100.00;96358.09;1021424;28;20017;-68
2021/04/16 00:53:17;;;;;;;;;;;;;;;-3.16;100.00;96363.53;1023299;29;19914;-68
2021/04/16 00:53:48;;;;;;;;;;;;;;;-3.15;100.00;96365.16;1017266;29;20252;-69
2021/04/16 00:54:19;;;;;;;;;;;;;;;-3.16;100.00;96358.41;1019082;29;19951;-68
2021/04/16 00:54:49;;;;;;;;;;;;;;;-3.16;100.00;96348.16;1023730;28;19981;-68
2021/04/16 00:55:20;;;;;;;;;;;;;;;-3.17;100.00;96356.81;1024584;28;19910;-68
2021/04/16 00:55:50;;;;;;;;;;;;;;;-3.20;100.00;96352.78;1017442;29;20526;-68
2021/04/16 00:56:20;;;;;;;;;;;;;;;-3.19;100.00;96353.59;1013070;29;19919;-68
2021/04/16 00:56:50;;;;;;;;;;;;;;;-3.20;100.00;96357.94;1023066;29;19917;-68
2021/04/16 00:57:21;;;;;;;;;;;;;;;-3.16;100.00;96345.56;1022846;29;20009;-69
2021/04/16 00:57:51;;;;;;;;;;;;;;;-3.14;100.00;96346.22;1021557;28;20366;-68
2021/04/16 00:58:22;;;;;;;;;;;;;;;-3.17;100.00;96349.91;1030096;28;19917;-68
2021/04/16 00:58:53;;;;;;;;;;;;;;;-3.19;100.00;96348.47;1029876;28;20046;-68
2021/04/16 00:59:25;;;;;;;;;;;;;;;-3.15;100.00;96350.56;1031072;28;20525;-68
2021/04/16 00:59:56;;;;;;;;;;;;;;;-3.17;100.00;96352.47;1025575;28;19995;-69
2021/04/16 01:00:26;;;;;;;;;;;;;;;-3.17;100.00;96352.47;1025947;28;20302;-68
2021/04/16 01:00:57;;;;;;;;;;;;;;;-3.18;100.00;96350.09;1032737;28;19938;-68
2021/04/16 01:01:27;;;;;;;;;;;;;;;-3.20;100.00;96350.22;1035603;28;19952;-68
2021/04/16 01:01:58;;;;;;;;;;;;;;;-3.20;100.00;96347.66;1029576;28;19909;-67
2021/04/16 01:02:28;;;;;;;;;;;;;;;-3.17;100.00;96351.69;1025691;28;19931;-68
2021/04/16 01:02:59;;;;;;;;;;;;;;;-3.19;100.00;96344.13;1027489;28;19910;-68
2021/04/16 01:03:29;;;;;;;;;;;;;;;-3.15;100.00;96347.19;1023590;28;20622;-68
2021/04/16 01:03:59;;;;;;;;;;;;;;;-3.18;100.00;96350.09;1026389;28;19945;-68
2021/04/16 01:04:30;;;;;;;;;;;;;;;-3.36;100.00;96312.53;1025455;28;19905;-70
2021/04/16 01:05:00;;;;;;;;;;;;;;;-3.19;100.00;96344.13;1022972;28;19913;-68
2021/04/16 01:05:31;;;;;;;;;;;;;;;-3.21;100.00;96340.16;1027455;28;19902;-68
2021/04/16 01:06:03;;;;;;;;;;;;;;;-3.18;100.00;96344.97;1027507;28;19906;-69
2021/04/16 01:06:33;;;;;;;;;;;;;;;-3.16;100.00;96341.25;1024478;28;19906;-68
2021/04/16 01:07:04;;;;;;;;;;;;;;;-3.34;100.00;96325.22;1023181;28;19903;-68
2021/04/16 01:07:34;;;;;;;;;;;;;;;-3.18;100.00;96345.75;1026647;28;19913;-67
2021/04/16 01:08:05;;;;;;;;;;;;;;;-3.18;100.00;96345.75;1027172;28;19903;-67
2021/04/16 01:08:35;;;;;;;;;;;;;;;-3.15;100.00;96342.06;1025026;28;20016;-69
2021/04/16 01:09:05;;;;;;;;;;;;;;;-3.15;100.00;96337.72;1030760;28;19909;-69
2021/04/16 01:09:36;;;;;;;;;;;;;;;-3.19;100.00;96344.13;1027999;28;20274;-68
2021/04/16 01:10:06;;;;;;;;;;;;;;;-3.18;100.00;96342.38;1023533;28;19910;-69
2021/04/16 01:10:36;;;;;;;;;;;;;;;-3.20;100.00;96334.03;1017286;29;19909;-68
2021/04/16 01:11:07;;;;;;;;;;;;;;;-3.19;100.00;96336.44;1017597;28;19903;-69
2021/04/16 01:11:37;;;;;;;;;;;;;;;-3.13;100.00;96335.78;1023189;28;19905;-68
2021/04/16 01:12:08;;;;;;;;;;;;;;;-3.14;100.00;96336.75;1020390;29;19899;-69
2021/04/16 01:12:39;;;;;;;;;;;;;;;-3.16;100.00;96335.31;1029355;28;19936;-68
2021/04/16 01:13:09;;;;;;;;;;;;;;;-3.19;100.00;96335.63;1030086;28;19968;-68
2021/04/16 01:13:39;;;;;;;;;;;;;;;-3.19;100.00;96344.13;1027118;28;19903;-69
2021/04/16 01:14:10;;;;;;;;;;;;;;;-3.16;100.00;96341.25;1027692;28;19902;-68
2021/04/16 01:14:40;;;;;;;;;;;;;;;-3.15;100.00;96342.06;1024704;28;19902;-66
2021/04/16 01:15:23;;;;;;;;;;;;;;;-3.20;100.00;96344.31;1030265;28;19933;-69
2021/04/16 01:16:00;;;;;;;;;;;;;;;-3.21;100.00;96345.28;1031192;28;19976;-66
2021/04/16 01:16:32;;;;;;;;;;;;;;;-3.18;100.00;96345.75;1025532;28;19903;-68
2021/04/16 01:17:03;;;;;;;;;;;;;;;-3.21;100.00;96340.16;1024370;28;19918;-68
2021/04/16 01:17:33;;;;;;;;;;;;;;;-3.23;100.00;96342.06;1027315;28;19902;-68
2021/04/16 01:18:23;;;;;;;;;;;;;;;-3.21;100.00;96337.56;1028121;28;19914;-68
2021/04/16 01:18:54;;;;;;;;;;;;;;;-3.04;100.00;96341.72;1025706;28;19902;-67
2021/04/16 01:19:50;;;;;;;;;;;;;;;-3.10;100.00;96338.03;1024410;28;19908;-68
2021/04/16 01:20:22;;;;;;;;;;;;;;;-3.04;100.00;96338.38;1010866;29;20455;-68
2021/04/16 01:20:52;;;;;;;;;;;;;;;-3.05;100.00;96339.31;1017491;28;20594;-68
2021/04/16 01:21:24;;;;;;;;;;;;;;;-3.09;100.00;96344.75;1025982;28;19899;-68
2021/04/16 01:22:00;;;;;;;;;;;;;;;-3.09;100.00;96339.63;1026623;28;19902;-68
2021/04/16 01:22:39;;;;;;;;;;;;;;;-3.09;100.00;96338.81;1024636;28;20619;-68
2021/04/16 01:23:09;;;;;;;;;;;;;;;-3.11;100.00;96343.34;1023532;28;19914;-68
2021/04/16 01:23:52;;;;;;;;;;;;;;;-3.08;100.00;96336.13;1027587;28;19910;-68
2021/04/16 01:24:22;;;;;;;;;;;;;;;-3.06;100.00;96342.84;1033967;28;19913;-68
2021/04/16 01:24:54;;;;;;;;;;;;;;;-3.09;100.00;96339.63;1033206;28;19964;-69
2021/04/16 01:25:24;;;;;;;;;;;;;;;-3.09;100.00;96339.63;1029428;28;19994;-69
2021/04/16 01:25:55;;;;;;;;;;;;;;;-3.11;100.00;96335.66;1021816;28;19931;-70
2021/04/16 01:26:26;;;;;;;;;;;;;;;-3.10;100.00;96332.09;1019874;29;20352;-68
2021/04/16 01:26:57;;;;;;;;;;;;;;;-3.13;100.00;96335.78;1015686;29;20022;-69
2021/04/16 01:27:27;;;;;;;;;;;;;;;-3.15;100.00;96331.81;1012218;29;19916;-68
2021/04/16 01:27:58;;;;;;;;;;;;;;;-3.16;100.00;96338.69;1013352;29;19914;-68
2021/04/16 01:28:28;;;;;;;;;;;;;;;-3.14;100.00;96338.53;1019396;28;19933;-66
2021/04/16 01:28:58;;;;;;;;;;;;;;;-3.15;100.00;96335.16;1027684;28;20367;-68
2021/04/16 01:29:29;;;;;;;;;;;;;;;-3.15;100.00;96340.31;1030929;28;19952;-67
2021/04/16 01:30:08;;;;;;;;;;;;;;;-3.15;100.00;96337.72;1028323;28;19920;-68
2021/04/16 01:30:52;;;;;;;;;;;;;;;-3.13;100.00;96340.13;1031663;28;20011;-68
2021/04/16 01:31:23;;;;;;;;;;;;;;;-3.09;100.00;96339.63;1033120;28;19906;-67
2021/04/16 01:31:53;;;;;;;;;;;;;;;-3.06;100.00;96340.28;1032799;28;19909;-67
2021/04/16 01:32:27;;;;;;;;;;;;;;;-3.09;100.00;96337.06;1023962;28;20446;-68
2021/04/16 01:32:58;;;;;;;;;;;;;;;-3.08;100.00;96333.56;1027505;28;20012;-66
2021/04/16 01:33:29;;;;;;;;;;;;;;;-3.09;100.00;96333.69;1019189;29;19910;-66
2021/04/16 01:33:59;;;;;;;;;;;;;;;-3.11;100.00;96335.66;1018428;28;20078;-66
2021/04/16 01:34:30;;;;;;;;;;;;;;;-3.11;100.00;96331.31;1018949;29;20537;-67
2021/04/16 01:35:00;;;;;;;;;;;;;;;-3.13;100.00;96335.78;1019561;29;19942;-66
2021/04/16 01:35:32;;;;;;;;;;;;;;;-3.05;100.00;96340.13;1023067;28;19949;-65
2021/04/16 01:36:03;;;;;;;;;;;;;;;-3.02;100.00;96332.06;1025142;28;19906;-66
2021/04/16 01:36:33;;;;;;;;;;;;;;;-3.05;100.00;96329.88;1026762;28;20367;-66
2021/04/16 01:37:04;;;;;;;;;;;;;;;-3.06;100.00;96337.72;1027367;28;19909;-65
2021/04/16 01:37:34;;;;;;;;;;;;;;;-3.06;100.00;96330.81;1020825;29;19915;-66
2021/04/16 01:38:04;;;;;;;;;;;;;;;-3.23;100.00;96306.13;1017306;29;19914;-62
2021/04/16 01:38:35;;;;;;;;;;;;;;;-3.04;100.00;96338.38;1026640;28;19996;-66
2021/04/16 01:39:05;;;;;;;;;;;;;;;-3.01;100.00;96332.91;1026602;28;19917;-66
2021/04/16 01:39:35;;;;;;;;;;;;;;;-2.97;100.00;96334.19;1030003;28;19916;-64
2021/04/16 01:40:06;;;;;;;;;;;;;;;-3.00;100.00;96331.94;1036942;28;19936;-68
2021/04/16 01:40:36;;;;;;;;;;;;;;;-3.02;100.00;96331.28;1026783;28;20643;-68
2021/04/16 01:41:07;;;;;;;;;;;;;;;-2.99;100.00;96334.31;1031031;28;19912;-66
2021/04/16 01:41:37;;;;;;;;;;;;;;;-2.96;100.00;96333.19;1031628;28;19988;-65
2021/04/16 01:42:07;;;;;;;;;;;;;;;-2.99;100.00;96336.88;1024473;28;19974;-65
2021/04/16 01:42:38;;;;;;;;;;;;;;;-3.00;100.00;96331.94;1030574;28;19968;-65
2021/04/16 01:43:14;;;;;;;;;;;;;;;-3.02;100.00;96333.84;1031043;28;20753;-65
2021/04/16 01:43:45;;;;;;;;;;;;;;;-3.02;100.00;96333.84;1031758;28;19932;-63
2021/04/16 01:44:16;;;;;;;;;;;;;;;-3.03;100.00;96332.25;1027982;28;19940;-64
2021/04/16 01:44:47;;;;;;;;;;;;;;;-3.04;100.00;96335.78;1029261;28;19909;-66
2021/04/16 01:45:21;;;;;;;;;;;;;;;-3.02;100.00;96329.50;1027605;28;19933;-67
2021/04/16 01:45:59;;;;;;;;;;;;;;;-2.99;100.00;96333.53;1026981;28;20393;-65
2021/04/16 01:46:38;;;;;;;;;;;;;;;-3.05;100.00;96329.03;1024065;28;19914;-65
2021/04/16 01:47:09;;;;;;;;;;;;;;;-3.06;100.00;96333.38;1029508;28;20321;-66
2021/04/16 01:47:39;;;;;;;;;;;;;;;-3.09;100.00;96334.50;1025069;28;19980;-67
2021/04/16 01:48:09;;;;;;;;;;;;;;;-3.09;100.00;96331.94;1028259;28;19926;-65
2021/04/16 01:48:41;;;;;;;;;;;;;;;-3.10;100.00;96330.34;1030856;28;20448;-66
2021/04/16 01:49:12;;;;;;;;;;;;;;;-3.11;100.00;96330.50;1030997;28;20012;-65
2021/04/16 01:49:46;;;;;;;;;;;;;;;-3.14;100.00;96325.69;1030183;28;19909;-66
2021/04/16 01:50:16;;;;;;;;;;;;;;;-3.13;100.00;96324.72;1029411;28;20317;-65
2021/04/16 01:50:46;;;;;;;;;;;;;;;-3.17;100.00;96326.03;1030944;28;19917;-69
2021/04/16 01:51:30;;;;;;;;;;;;;;;-3.17;100.00;96326.81;1031955;28;19922;-68
2021/04/16 01:52:00;;;;;;;;;;;;;;;-3.18;100.00;96329.56;1035632;28;19909;-67
2021/04/16 01:52:31;;;;;;;;;;;;;;;-3.19;100.00;96326.16;1035936;28;19914;-66
2021/04/16 01:53:01;;;;;;;;;;;;;;;-3.18;100.00;96327.78;1036458;28;20013;-68
2021/04/16 01:53:32;;;;;;;;;;;;;;;-3.21;100.00;96325.53;1032858;28;19906;-68
2021/04/16 01:54:09;;;;;;;;;;;;;;;-3.23;100.00;96324.88;1030353;28;19914;-67
2021/04/16 01:54:41;;;;;;;;;;;;;;;-3.25;100.00;96321.72;1017877;29;19930;-65
2021/04/16 01:55:11;;;;;;;;;;;;;;;-3.25;100.00;96326.84;1016755;29;19926;-66
2021/04/16 01:55:42;;;;;;;;;;;;;;;-3.16;100.00;96323.28;1020503;29;19910;-67
2021/04/16 01:56:12;;;;;;;;;;;;;;;-3.10;100.00;96327.75;1018790;28;19911;-66
2021/04/16 01:56:43;;;;;;;;;;;;;;;-3.08;100.00;96319.91;1026143;28;20124;-68
2021/04/16 01:57:25;;;;;;;;;;;;;;;-2.99;100.00;96324.06;1030261;28;19917;-68
2021/04/16 01:57:55;;;;;;;;;;;;;;;-2.99;100.00;96328.41;1029206;28;19941;-67
2021/04/16 01:58:26;;;;;;;;;;;;;;;-3.12;100.00;96292.97;1026566;28;19977;-68
2021/04/16 01:58:56;;;;;;;;;;;;;;;-2.94;100.00;96321.00;1026810;28;19914;-67
2021/04/16 01:59:27;;;;;;;;;;;;;;;-2.94;100.00;96326.16;1022067;28;19917;-67
2021/04/16 01:59:58;;;;;;;;;;;;;;;-2.93;100.00;96317.47;1024323;28;19949;-68
2021/04/16 02:00:30;;;;;;;;;;;;;;;-2.92;100.00;96324.22;1021111;28;20378;-65
2021/04/16 02:01:00;;;;;;;;;;;;;;;-2.94;100.00;96326.16;1022726;28;19911;-66
2021/04/16 02:01:31;;;;;;;;;;;;;;;-2.92;100.00;96326.78;1022930;29;20395;-68
2021/04/16 02:02:02;;;;;;;;;;;;;;;-2.94;100.00;96321.00;1024166;28;20387;-68
2021/04/16 02:02:34;;;;;;;;;;;;;;;-2.96;100.00;96322.94;1029104;28;19948;-66
2021/04/16 02:03:04;;;;;;;;;;;;;;;-2.91;100.00;96329.19;1027314;28;19910;-69
2021/04/16 02:03:35;;;;;;;;;;;;;;;-2.92;100.00;96325.03;1034522;28;19909;-68
2021/04/16 02:04:05;;;;;;;;;;;;;;;-2.94;100.00;96321.00;1031072;28;19909;-68
2021/04/16 02:04:35;;;;;;;;;;;;;;;-2.92;100.00;96319.91;1029298;28;19910;-68
2021/04/16 02:05:06;;;;;;;;;;;;;;;-2.92;100.00;96319.06;1027630;28;19957;-67
2021/04/16 02:05:36;;;;;;;;;;;;;;;-2.93;100.00;96322.59;1031132;28;19968;-67
2021/04/16 02:06:07;;;;;;;;;;;;;;;-2.95;100.00;96324.53;1035347;28;19909;-69
2021/04/16 02:06:37;;;;;;;;;;;;;;;-2.96;100.00;96318.59;1033121;28;20024;-66
2021/04/16 02:07:08;;;;;;;;;;;;;;;-2.91;100.00;96320.69;1029833;28;19909;-67
2021/04/16 02:07:38;;;;;;;;;;;;;;;-2.86;100.00;96318.41;1030827;28;19910;-68
2021/04/16 02:08:08;;;;;;;;;;;;;;;-2.88;100.00;96317.81;1031104;28;19921;-67
2021/04/16 02:08:38;;;;;;;;;;;;;;;-2.88;100.00;96315.22;1029619;28;20439;-67
2021/04/16 02:09:09;;;;;;;;;;;;;;;-2.83;100.00;96319.88;1029004;28;19920;-67
2021/04/16 02:09:39;;;;;;;;;;;;;;;-2.82;100.00;96319.69;1027131;28;19961;-68
2021/04/16 02:10:10;;;;;;;;;;;;;;;-2.77;100.00;96314.88;1027338;28;20004;-67
2021/04/16 02:10:42;;;;;;;;;;;;;;;-2.78;100.00;96312.44;1021304;28;19914;-67
2021/04/16 02:11:12;;;;;;;;;;;;;;;-2.80;100.00;96320.34;1028959;28;19996;-68
2021/04/16 02:11:42;;;;;;;;;;;;;;;-2.79;100.00;96314.22;1035137;28;20027;-67
2021/04/16 02:12:13;;;;;;;;;;;;;;;-2.80;100.00;96320.34;1027069;28;19977;-68
2021/04/16 02:12:44;;;;;;;;;;;;;;;-2.77;100.00;96311.50;1024983;28;19918;-67
2021/04/16 02:13:14;;;;;;;;;;;;;;;-2.78;100.00;96310.72;1017935;29;19910;-68
2021/04/16 02:13:44;;;;;;;;;;;;;;;-2.76;100.00;96313.91;1019138;28;19937;-66
2021/04/16 02:14:15;;;;;;;;;;;;;;;-2.74;100.00;96313.75;1023465;28;19935;-65
2021/04/16 02:14:45;;;;;;;;;;;;;;;-2.76;100.00;96313.91;1022061;28;20545;-66
2021/04/16 02:15:16;;;;;;;;;;;;;;;-2.69;100.00;96314.84;1025277;28;19910;-66
2021/04/16 02:15:46;;;;;;;;;;;;;;;-2.67;100.00;96315.47;1027061;28;19910;-65
2021/04/16 02:16:16;;;;;;;;;;;;;;;-2.65;100.00;96315.31;1025596;28;19910;-68
2021/04/16 02:16:47;;;;;;;;;;;;;;;-2.65;100.00;96313.56;1026918;28;19914;-67
2021/04/16 02:17:21;;;;;;;;;;;;;;;-2.64;100.00;96314.34;1016526;29;19947;-65
2021/04/16 02:17:51;;;;;;;;;;;;;;;-2.64;100.00;96311.78;1018604;29;19911;-65
2021/04/16 02:18:21;;;;;;;;;;;;;;;-2.66;100.00;96319.66;1023449;29;20287;-66
2021/04/16 02:18:53;;;;;;;;;;;;;;;-2.69;100.00;96314.03;1023703;28;20058;-66
2021/04/16 02:19:23;;;;;;;;;;;;;;;-2.71;100.00;96310.84;1028502;28;20391;-65
2021/04/16 02:19:54;;;;;;;;;;;;;;;-2.74;100.00;96314.53;1027818;28;19910;-66
2021/04/16 02:20:24;;;;;;;;;;;;;;;-2.74;100.00;96311.19;1024219;28;20741;-65
2021/04/16 02:20:55;;;;;;;;;;;;;;;-2.75;100.00;96310.38;1022512;29;19910;-66
2021/04/16 02:21:25;;;;;;;;;;;;;;;-2.78;100.00;96318.41;1018445;28;19915;-67
2021/04/16 02:21:56;;;;;;;;;;;;;;;-2.82;100.00;96313.75;1027689;28;20408;-68
2021/04/16 02:22:26;;;;;;;;;;;;;;;-2.88;100.00;96316.03;1024149;28;19965;-67
2021/04/16 02:22:57;;;;;;;;;;;;;;;-2.90;100.00;96317.16;1018211;29;19966;-68
2021/04/16 02:23:27;;;;;;;;;;;;;;;-2.91;100.00;96316.34;1021869;29;20252;-67
2021/04/16 02:23:57;;;;;;;;;;;;;;;-2.93;100.00;96309.78;1024149;28;19914;-68
2021/04/16 02:24:28;;;;;;;;;;;;;;;-2.99;100.00;96307.84;1023521;28;20379;-66
2021/04/16 02:24:58;;;;;;;;;;;;;;;-3.03;100.00;96311.72;1036305;28;19940;-68
2021/04/16 02:25:28;;;;;;;;;;;;;;;-3.03;100.00;96311.72;1033010;28;19914;-67
2021/04/16 02:25:59;;;;;;;;;;;;;;;-3.04;100.00;96310.94;1035432;28;19913;-68
2021/04/16 02:26:29;;;;;;;;;;;;;;;-3.04;100.00;96312.69;1035817;28;20274;-68
2021/04/16 02:26:59;;;;;;;;;;;;;;;-3.06;100.00;96315.41;1036030;28;20378;-67
2021/04/16 02:27:30;;;;;;;;;;;;;;;-3.08;100.00;96313.03;1026750;28;19910;-67
2021/04/16 02:28:00;;;;;;;;;;;;;;;-3.10;100.00;96312.38;1028287;28;19914;-67
2021/04/16 02:28:30;;;;;;;;;;;;;;;-3.09;100.00;96308.81;1035554;28;19910;-68
2021/04/16 02:29:01;;;;;;;;;;;;;;;-3.13;100.00;96312.69;1030261;28;20407;-68
2021/04/16 02:29:31;;;;;;;;;;;;;;;-3.11;100.00;96310.78;1026279;28;19910;-66
2021/04/16 02:30:01;;;;;;;;;;;;;;;-3.11;100.00;96315.91;1030277;28;19914;-67
2021/04/16 02:30:33;;;;;;;;;;;;;;;-3.11;100.00;96310.78;1023397;28;20013;-67
2021/04/16 02:31:03;;;;;;;;;;;;;;;-3.13;100.00;96311.91;1024202;28;19961;-68
2021/04/16 02:31:33;;;;;;;;;;;;;;;-3.16;100.00;96315.56;1025709;28;20380;-68
2021/04/16 02:32:04;;;;;;;;;;;;;;;-3.16;100.00;96310.44;1023087;28;20009;-68
2021/04/16 02:32:34;;;;;;;;;;;;;;;-3.17;100.00;96315.75;1023407;28;20612;-67
2021/04/16 02:33:05;;;;;;;;;;;;;;;-3.19;100.00;96313.34;1023590;28;19907;-68
2021/04/16 02:33:35;;;;;;;;;;;;;;;-3.19;100.00;96312.53;1020087;29;20360;-66
2021/04/16 02:34:06;;;;;;;;;;;;;;;-3.21;100.00;96309.34;1018004;28;19917;-67
2021/04/16 02:34:36;;;;;;;;;;;;;;;-3.43;100.00;96275.69;1027660;28;19917;-66
2021/04/16 02:35:06;;;;;;;;;;;;;;;-3.21;100.00;96312.72;1030837;28;19944;-66
2021/04/16 02:35:37;;;;;;;;;;;;;;;-3.22;100.00;96308.56;1031998;28;19906;-66
2021/04/16 02:36:07;;;;;;;;;;;;;;;-3.23;100.00;96306.94;1025447;28;19914;-66
2021/04/16 02:36:37;;;;;;;;;;;;;;;-3.25;100.00;96303.75;1025279;28;19968;-67
2021/04/16 02:37:09;;;;;;;;;;;;;;;-3.26;100.00;96299.56;1019234;29;19911;-66
2021/04/16 02:37:39;;;;;;;;;;;;;;;-3.29;100.00;96307.56;1024311;28;20020;-67
2021/04/16 02:38:10;;;;;;;;;;;;;;;-3.31;100.00;96304.38;1025766;28;20327;-67
2021/04/16 02:38:40;;;;;;;;;;;;;;;-3.31;100.00;96304.38;1027085;28;19917;-67
2021/04/16 02:39:10;;;;;;;;;;;;;;;-3.31;100.00;96304.38;1031533;28;19960;-67
2021/04/16 02:39:41;;;;;;;;;;;;;;;-3.31;100.00;96304.38;1032042;28;19965;-66
2021/04/16 02:40:12;;;;;;;;;;;;;;;-3.36;100.00;96302.28;1030105;28;19916;-65
2021/04/16 02:40:42;;;;;;;;;;;;;;;-3.36;100.00;96304.84;1030289;28;19909;-65